sensor_id;sensor_type;location;lat;lon;timestamp;P1;durP1;ratioP1;P2;durP2;ratioP2
33022;SDS011;19390;51.460;5.710;2023-11-19T00:00:05;8.88;;;5.55;;
33022;SDS011;19390;51.460;5.710;2023-11-19T00:02:36;10.18;;;5.75;;
33022;SDS011;19390;51.460;5.710;2023-11-19T00:05:01;7.13;;;5.30;;
33022;SDS011;19390;51.460;5.710;2023-11-19T00:07:27;7.50;;;4.85;;
33022;SDS011;19390;51.460;5.710;2023-11-19T00:09:53;11.68;;;5.20;;
33022;SDS011;19390;51.460;5.710;2023-11-19T00:12:20;7.93;;;4.80;;
33022;SDS011;19390;51.460;5.710;2023-11-19T00:14:45;9.98;;;4.85;;
33022;SDS011;19390;51.460;5.710;2023-11-19T00:17:11;10.80;;;4.30;;
33022;SDS011;19390;51.460;5.710;2023-11-19T00:19:37;10.43;;;3.72;;
33022;SDS011;19390;51.460;5.710;2023-11-19T00:22:02;7.93;;;4.07;;
33022;SDS011;19390;51.460;5.710;2023-11-19T00:24:29;7.40;;;3.70;;
33022;SDS011;19390;51.460;5.710;2023-11-19T00:26:55;6.15;;;3.50;;
33022;SDS011;19390;51.460;5.710;2023-11-19T00:29:21;9.80;;;3.30;;
33022;SDS011;19390;51.460;5.710;2023-11-19T00:31:47;5.28;;;3.20;;
33022;SDS011;19390;51.460;5.710;2023-11-19T00:34:13;6.70;;;2.90;;
33022;SDS011;19390;51.460;5.710;2023-11-19T00:36:38;6.35;;;3.22;;
33022;SDS011;19390;51.460;5.710;2023-11-19T00:39:04;10.65;;;2.75;;
33022;SDS011;19390;51.460;5.710;2023-11-19T00:41:30;5.60;;;2.65;;
33022;SDS011;19390;51.460;5.710;2023-11-19T00:43:56;8.82;;;2.90;;
33022;SDS011;19390;51.460;5.710;2023-11-19T00:46:22;5.03;;;3.00;;
33022;SDS011;19390;51.460;5.710;2023-11-19T00:48:47;4.65;;;2.63;;
33022;SDS011;19390;51.460;5.710;2023-11-19T00:51:13;6.50;;;3.03;;
33022;SDS011;19390;51.460;5.710;2023-11-19T00:53:39;3.47;;;1.85;;
33022;SDS011;19390;51.460;5.710;2023-11-19T00:56:04;4.25;;;2.63;;
33022;SDS011;19390;51.460;5.710;2023-11-19T00:58:30;5.22;;;2.20;;
33022;SDS011;19390;51.460;5.710;2023-11-19T01:00:57;2.20;;;1.70;;
33022;SDS011;19390;51.460;5.710;2023-11-19T01:03:22;6.30;;;2.30;;
33022;SDS011;19390;51.460;5.710;2023-11-19T01:05:48;7.85;;;2.03;;
33022;SDS011;19390;51.460;5.710;2023-11-19T01:08:14;7.20;;;2.50;;
33022;SDS011;19390;51.460;5.710;2023-11-19T01:10:41;4.82;;;2.17;;
33022;SDS011;19390;51.460;5.710;2023-11-19T01:13:06;6.10;;;2.35;;
33022;SDS011;19390;51.460;5.710;2023-11-19T01:15:32;7.28;;;2.55;;
33022;SDS011;19390;51.460;5.710;2023-11-19T01:17:58;11.77;;;2.92;;
33022;SDS011;19390;51.460;5.710;2023-11-19T01:20:23;9.75;;;2.53;;
33022;SDS011;19390;51.460;5.710;2023-11-19T01:22:49;10.43;;;2.50;;
33022;SDS011;19390;51.460;5.710;2023-11-19T01:25:15;6.93;;;2.88;;
33022;SDS011;19390;51.460;5.710;2023-11-19T01:27:41;12.52;;;2.75;;
33022;SDS011;19390;51.460;5.710;2023-11-19T01:30:07;9.95;;;2.53;;
33022;SDS011;19390;51.460;5.710;2023-11-19T01:32:35;11.68;;;2.58;;
33022;SDS011;19390;51.460;5.710;2023-11-19T01:35:01;7.80;;;2.60;;
33022;SDS011;19390;51.460;5.710;2023-11-19T01:37:29;8.15;;;3.08;;
33022;SDS011;19390;51.460;5.710;2023-11-19T01:39:54;20.58;;;3.42;;
33022;SDS011;19390;51.460;5.710;2023-11-19T01:42:20;10.50;;;2.30;;
33022;SDS011;19390;51.460;5.710;2023-11-19T01:44:54;11.43;;;2.30;;
33022;SDS011;19390;51.460;5.710;2023-11-19T01:47:25;10.68;;;2.88;;
33022;SDS011;19390;51.460;5.710;2023-11-19T01:49:51;10.05;;;3.30;;
33022;SDS011;19390;51.460;5.710;2023-11-19T01:52:17;9.50;;;2.50;;
33022;SDS011;19390;51.460;5.710;2023-11-19T01:54:45;12.43;;;2.55;;
33022;SDS011;19390;51.460;5.710;2023-11-19T01:57:11;16.65;;;2.88;;
33022;SDS011;19390;51.460;5.710;2023-11-19T01:59:37;8.95;;;2.00;;
33022;SDS011;19390;51.460;5.710;2023-11-19T02:02:03;13.55;;;2.95;;
33022;SDS011;19390;51.460;5.710;2023-11-19T02:04:30;8.85;;;2.35;;
33022;SDS011;19390;51.460;5.710;2023-11-19T02:06:56;11.25;;;2.53;;
33022;SDS011;19390;51.460;5.710;2023-11-19T02:09:23;7.65;;;2.78;;
33022;SDS011;19390;51.460;5.710;2023-11-19T02:11:49;12.10;;;2.50;;
33022;SDS011;19390;51.460;5.710;2023-11-19T02:14:17;11.32;;;2.55;;
33022;SDS011;19390;51.460;5.710;2023-11-19T02:16:42;22.02;;;2.78;;
33022;SDS011;19390;51.460;5.710;2023-11-19T02:19:08;14.13;;;2.67;;
33022;SDS011;19390;51.460;5.710;2023-11-19T02:21:36;12.35;;;2.47;;
33022;SDS011;19390;51.460;5.710;2023-11-19T02:24:05;6.28;;;1.70;;
33022;SDS011;19390;51.460;5.710;2023-11-19T02:29:01;12.40;;;2.30;;
33022;SDS011;19390;51.460;5.710;2023-11-19T02:31:27;11.07;;;2.78;;
33022;SDS011;19390;51.460;5.710;2023-11-19T02:33:53;8.43;;;2.08;;
33022;SDS011;19390;51.460;5.710;2023-11-19T02:36:19;15.45;;;3.00;;
33022;SDS011;19390;51.460;5.710;2023-11-19T02:38:46;14.85;;;2.35;;
33022;SDS011;19390;51.460;5.710;2023-11-19T02:41:13;11.90;;;3.10;;
33022;SDS011;19390;51.460;5.710;2023-11-19T02:43:39;14.60;;;2.50;;
33022;SDS011;19390;51.460;5.710;2023-11-19T02:46:05;20.95;;;3.15;;
33022;SDS011;19390;51.460;5.710;2023-11-19T02:48:34;16.02;;;3.42;;
33022;SDS011;19390;51.460;5.710;2023-11-19T02:51:00;15.27;;;2.97;;
33022;SDS011;19390;51.460;5.710;2023-11-19T02:53:28;18.63;;;3.45;;
33022;SDS011;19390;51.460;5.710;2023-11-19T02:55:56;13.80;;;3.60;;
33022;SDS011;19390;51.460;5.710;2023-11-19T02:58:31;20.67;;;3.50;;
33022;SDS011;19390;51.460;5.710;2023-11-19T03:00:57;17.58;;;3.20;;
33022;SDS011;19390;51.460;5.710;2023-11-19T03:03:26;23.67;;;3.42;;
33022;SDS011;19390;51.460;5.710;2023-11-19T03:06:03;20.63;;;3.17;;
33022;SDS011;19390;51.460;5.710;2023-11-19T03:08:29;17.98;;;3.63;;
33022;SDS011;19390;51.460;5.710;2023-11-19T03:10:55;25.08;;;3.65;;
33022;SDS011;19390;51.460;5.710;2023-11-19T03:13:21;22.70;;;4.00;;
33022;SDS011;19390;51.460;5.710;2023-11-19T03:15:47;21.92;;;3.40;;
33022;SDS011;19390;51.460;5.710;2023-11-19T03:18:12;25.25;;;3.83;;
33022;SDS011;19390;51.460;5.710;2023-11-19T03:20:38;20.58;;;3.25;;
33022;SDS011;19390;51.460;5.710;2023-11-19T03:23:04;31.92;;;3.20;;
33022;SDS011;19390;51.460;5.710;2023-11-19T03:25:31;23.23;;;4.15;;
33022;SDS011;19390;51.460;5.710;2023-11-19T03:28:01;24.02;;;4.35;;
33022;SDS011;19390;51.460;5.710;2023-11-19T03:30:28;20.80;;;4.43;;
33022;SDS011;19390;51.460;5.710;2023-11-19T03:32:55;19.58;;;4.07;;
33022;SDS011;19390;51.460;5.710;2023-11-19T03:35:21;14.75;;;3.30;;
33022;SDS011;19390;51.460;5.710;2023-11-19T03:37:48;30.42;;;3.35;;
33022;SDS011;19390;51.460;5.710;2023-11-19T03:40:13;24.90;;;4.00;;
33022;SDS011;19390;51.460;5.710;2023-11-19T03:42:39;17.23;;;3.47;;
33022;SDS011;19390;51.460;5.710;2023-11-19T03:45:06;28.52;;;4.63;;
33022;SDS011;19390;51.460;5.710;2023-11-19T03:47:33;26.42;;;4.72;;
33022;SDS011;19390;51.460;5.710;2023-11-19T03:50:00;27.58;;;4.50;;
33022;SDS011;19390;51.460;5.710;2023-11-19T03:52:25;33.92;;;3.83;;
33022;SDS011;19390;51.460;5.710;2023-11-19T03:54:57;23.75;;;4.70;;
33022;SDS011;19390;51.460;5.710;2023-11-19T03:57:23;18.95;;;3.88;;
33022;SDS011;19390;51.460;5.710;2023-11-19T03:59:48;21.92;;;4.78;;
33022;SDS011;19390;51.460;5.710;2023-11-19T04:02:14;23.42;;;4.15;;
33022;SDS011;19390;51.460;5.710;2023-11-19T04:04:40;34.85;;;4.40;;
33022;SDS011;19390;51.460;5.710;2023-11-19T04:07:06;27.48;;;4.75;;
33022;SDS011;19390;51.460;5.710;2023-11-19T04:09:31;26.85;;;3.80;;
33022;SDS011;19390;51.460;5.710;2023-11-19T04:12:02;27.08;;;4.43;;
33022;SDS011;19390;51.460;5.710;2023-11-19T04:14:28;24.88;;;4.25;;
33022;SDS011;19390;51.460;5.710;2023-11-19T04:16:54;28.17;;;4.47;;
33022;SDS011;19390;51.460;5.710;2023-11-19T04:19:20;30.70;;;5.32;;
33022;SDS011;19390;51.460;5.710;2023-11-19T04:21:45;27.00;;;5.03;;
33022;SDS011;19390;51.460;5.710;2023-11-19T04:24:11;31.35;;;4.07;;
33022;SDS011;19390;51.460;5.710;2023-11-19T04:26:41;32.53;;;4.20;;
33022;SDS011;19390;51.460;5.710;2023-11-19T04:29:13;30.98;;;4.80;;
33022;SDS011;19390;51.460;5.710;2023-11-19T04:31:42;28.65;;;4.63;;
33022;SDS011;19390;51.460;5.710;2023-11-19T04:34:08;29.90;;;4.15;;
33022;SDS011;19390;51.460;5.710;2023-11-19T04:36:33;20.67;;;3.08;;
33022;SDS011;19390;51.460;5.710;2023-11-19T04:38:59;33.25;;;4.45;;
33022;SDS011;19390;51.460;5.710;2023-11-19T04:41:26;31.70;;;4.03;;
33022;SDS011;19390;51.460;5.710;2023-11-19T04:43:55;32.25;;;4.05;;
33022;SDS011;19390;51.460;5.710;2023-11-19T04:46:20;18.45;;;4.70;;
33022;SDS011;19390;51.460;5.710;2023-11-19T04:48:46;31.20;;;4.40;;
33022;SDS011;19390;51.460;5.710;2023-11-19T04:51:12;17.50;;;3.15;;
33022;SDS011;19390;51.460;5.710;2023-11-19T04:53:38;17.15;;;3.58;;
33022;SDS011;19390;51.460;5.710;2023-11-19T04:56:12;26.42;;;3.88;;
33022;SDS011;19390;51.460;5.710;2023-11-19T04:58:38;24.55;;;3.92;;
33022;SDS011;19390;51.460;5.710;2023-11-19T05:01:04;26.35;;;4.35;;
33022;SDS011;19390;51.460;5.710;2023-11-19T05:03:30;18.52;;;3.92;;
33022;SDS011;19390;51.460;5.710;2023-11-19T05:05:56;25.58;;;4.00;;
33022;SDS011;19390;51.460;5.710;2023-11-19T05:08:22;20.90;;;4.30;;
33022;SDS011;19390;51.460;5.710;2023-11-19T05:10:48;30.05;;;5.15;;
33022;SDS011;19390;51.460;5.710;2023-11-19T05:13:14;31.65;;;5.28;;
33022;SDS011;19390;51.460;5.710;2023-11-19T05:15:40;30.27;;;4.82;;
33022;SDS011;19390;51.460;5.710;2023-11-19T05:18:05;25.88;;;5.38;;
33022;SDS011;19390;51.460;5.710;2023-11-19T05:20:31;28.88;;;4.68;;
33022;SDS011;19390;51.460;5.710;2023-11-19T05:22:57;26.67;;;4.53;;
33022;SDS011;19390;51.460;5.710;2023-11-19T05:25:25;35.40;;;4.70;;
33022;SDS011;19390;51.460;5.710;2023-11-19T05:27:51;25.13;;;4.20;;
33022;SDS011;19390;51.460;5.710;2023-11-19T05:30:17;22.23;;;4.20;;
33022;SDS011;19390;51.460;5.710;2023-11-19T05:32:43;22.17;;;4.45;;
33022;SDS011;19390;51.460;5.710;2023-11-19T05:35:08;28.48;;;4.47;;
33022;SDS011;19390;51.460;5.710;2023-11-19T05:37:34;30.90;;;4.55;;
33022;SDS011;19390;51.460;5.710;2023-11-19T05:40:00;19.70;;;4.03;;
33022;SDS011;19390;51.460;5.710;2023-11-19T05:42:28;28.35;;;4.32;;
33022;SDS011;19390;51.460;5.710;2023-11-19T05:44:53;38.58;;;4.68;;
33022;SDS011;19390;51.460;5.710;2023-11-19T05:47:19;24.20;;;4.88;;
33022;SDS011;19390;51.460;5.710;2023-11-19T05:49:44;26.85;;;4.15;;
33022;SDS011;19390;51.460;5.710;2023-11-19T05:52:10;28.20;;;4.30;;
33022;SDS011;19390;51.460;5.710;2023-11-19T05:54:37;30.15;;;5.10;;
33022;SDS011;19390;51.460;5.710;2023-11-19T05:57:04;33.58;;;4.43;;
33022;SDS011;19390;51.460;5.710;2023-11-19T05:59:30;22.88;;;4.53;;
33022;SDS011;19390;51.460;5.710;2023-11-19T06:01:58;33.03;;;4.60;;
33022;SDS011;19390;51.460;5.710;2023-11-19T06:04:23;20.73;;;4.35;;
33022;SDS011;19390;51.460;5.710;2023-11-19T06:06:49;23.38;;;3.55;;
33022;SDS011;19390;51.460;5.710;2023-11-19T06:09:14;27.73;;;4.10;;
33022;SDS011;19390;51.460;5.710;2023-11-19T06:11:40;37.15;;;5.38;;
33022;SDS011;19390;51.460;5.710;2023-11-19T06:14:06;38.30;;;5.45;;
33022;SDS011;19390;51.460;5.710;2023-11-19T06:16:32;24.52;;;5.20;;
33022;SDS011;19390;51.460;5.710;2023-11-19T06:18:57;45.47;;;4.50;;
33022;SDS011;19390;51.460;5.710;2023-11-19T06:21:23;43.03;;;5.40;;
33022;SDS011;19390;51.460;5.710;2023-11-19T06:23:49;31.52;;;4.80;;
33022;SDS011;19390;51.460;5.710;2023-11-19T06:26:17;22.65;;;3.38;;
33022;SDS011;19390;51.460;5.710;2023-11-19T06:28:43;22.58;;;3.90;;
33022;SDS011;19390;51.460;5.710;2023-11-19T06:31:09;41.42;;;4.22;;
33022;SDS011;19390;51.460;5.710;2023-11-19T06:33:34;21.75;;;3.72;;
33022;SDS011;19390;51.460;5.710;2023-11-19T06:36:00;24.85;;;4.65;;
33022;SDS011;19390;51.460;5.710;2023-11-19T06:38:25;34.85;;;5.18;;
33022;SDS011;19390;51.460;5.710;2023-11-19T06:40:51;35.17;;;4.65;;
33022;SDS011;19390;51.460;5.710;2023-11-19T06:43:17;28.00;;;3.95;;
33022;SDS011;19390;51.460;5.710;2023-11-19T06:45:42;31.60;;;5.30;;
33022;SDS011;19390;51.460;5.710;2023-11-19T06:48:08;33.72;;;3.80;;
33022;SDS011;19390;51.460;5.710;2023-11-19T06:50:34;30.90;;;4.47;;
33022;SDS011;19390;51.460;5.710;2023-11-19T06:52:59;26.67;;;4.20;;
33022;SDS011;19390;51.460;5.710;2023-11-19T06:55:26;27.40;;;4.07;;
33022;SDS011;19390;51.460;5.710;2023-11-19T06:57:51;31.40;;;4.18;;
33022;SDS011;19390;51.460;5.710;2023-11-19T07:00:17;38.58;;;4.53;;
33022;SDS011;19390;51.460;5.710;2023-11-19T07:02:43;30.13;;;4.50;;
33022;SDS011;19390;51.460;5.710;2023-11-19T07:05:09;30.52;;;3.90;;
33022;SDS011;19390;51.460;5.710;2023-11-19T07:07:35;31.10;;;5.20;;
33022;SDS011;19390;51.460;5.710;2023-11-19T07:10:00;42.17;;;4.72;;
33022;SDS011;19390;51.460;5.710;2023-11-19T07:12:27;27.42;;;5.65;;
33022;SDS011;19390;51.460;5.710;2023-11-19T07:14:54;32.15;;;4.35;;
33022;SDS011;19390;51.460;5.710;2023-11-19T07:17:20;30.58;;;4.60;;
33022;SDS011;19390;51.460;5.710;2023-11-19T07:19:49;29.98;;;4.78;;
33022;SDS011;19390;51.460;5.710;2023-11-19T07:22:16;38.08;;;3.97;;
33022;SDS011;19390;51.460;5.710;2023-11-19T07:24:42;21.75;;;4.10;;
33022;SDS011;19390;51.460;5.710;2023-11-19T07:27:08;23.45;;;4.47;;
33022;SDS011;19390;51.460;5.710;2023-11-19T07:29:34;36.42;;;5.88;;
33022;SDS011;19390;51.460;5.710;2023-11-19T07:32:00;29.83;;;5.00;;
33022;SDS011;19390;51.460;5.710;2023-11-19T07:34:30;29.33;;;4.60;;
33022;SDS011;19390;51.460;5.710;2023-11-19T07:36:55;28.27;;;5.43;;
33022;SDS011;19390;51.460;5.710;2023-11-19T07:39:27;38.03;;;5.05;;
33022;SDS011;19390;51.460;5.710;2023-11-19T07:41:52;21.88;;;4.40;;
33022;SDS011;19390;51.460;5.710;2023-11-19T07:44:19;28.88;;;4.25;;
33022;SDS011;19390;51.460;5.710;2023-11-19T07:46:46;32.47;;;4.65;;
33022;SDS011;19390;51.460;5.710;2023-11-19T07:49:12;27.27;;;4.95;;
33022;SDS011;19390;51.460;5.710;2023-11-19T07:51:38;37.90;;;6.07;;
33022;SDS011;19390;51.460;5.710;2023-11-19T07:54:04;36.92;;;4.10;;
33022;SDS011;19390;51.460;5.710;2023-11-19T07:56:30;34.50;;;4.05;;
33022;SDS011;19390;51.460;5.710;2023-11-19T07:58:56;26.10;;;4.78;;
33022;SDS011;19390;51.460;5.710;2023-11-19T08:01:22;29.73;;;5.55;;
33022;SDS011;19390;51.460;5.710;2023-11-19T08:03:48;41.85;;;6.28;;
33022;SDS011;19390;51.460;5.710;2023-11-19T08:06:14;25.63;;;3.85;;
33022;SDS011;19390;51.460;5.710;2023-11-19T08:08:40;30.33;;;4.63;;
33022;SDS011;19390;51.460;5.710;2023-11-19T08:11:05;23.23;;;4.93;;
33022;SDS011;19390;51.460;5.710;2023-11-19T08:13:31;31.77;;;5.05;;
33022;SDS011;19390;51.460;5.710;2023-11-19T08:15:57;30.65;;;4.43;;
33022;SDS011;19390;51.460;5.710;2023-11-19T08:18:23;34.97;;;4.50;;
33022;SDS011;19390;51.460;5.710;2023-11-19T08:20:49;24.48;;;4.22;;
33022;SDS011;19390;51.460;5.710;2023-11-19T08:23:18;25.88;;;4.35;;
33022;SDS011;19390;51.460;5.710;2023-11-19T08:25:43;21.67;;;4.75;;
33022;SDS011;19390;51.460;5.710;2023-11-19T08:28:09;25.17;;;3.75;;
33022;SDS011;19390;51.460;5.710;2023-11-19T08:30:35;25.90;;;4.95;;
33022;SDS011;19390;51.460;5.710;2023-11-19T08:33:00;22.92;;;3.85;;
33022;SDS011;19390;51.460;5.710;2023-11-19T08:35:28;27.33;;;3.67;;
33022;SDS011;19390;51.460;5.710;2023-11-19T08:37:54;21.83;;;3.13;;
33022;SDS011;19390;51.460;5.710;2023-11-19T08:40:19;26.90;;;3.83;;
33022;SDS011;19390;51.460;5.710;2023-11-19T08:42:45;29.08;;;4.30;;
33022;SDS011;19390;51.460;5.710;2023-11-19T08:45:10;32.17;;;4.47;;
33022;SDS011;19390;51.460;5.710;2023-11-19T08:47:39;23.55;;;4.47;;
33022;SDS011;19390;51.460;5.710;2023-11-19T08:50:05;23.95;;;4.47;;
33022;SDS011;19390;51.460;5.710;2023-11-19T08:52:31;42.88;;;4.50;;
33022;SDS011;19390;51.460;5.710;2023-11-19T08:54:57;31.98;;;5.28;;
33022;SDS011;19390;51.460;5.710;2023-11-19T08:57:22;35.05;;;4.78;;
33022;SDS011;19390;51.460;5.710;2023-11-19T08:59:48;23.58;;;4.13;;
33022;SDS011;19390;51.460;5.710;2023-11-19T09:02:13;22.98;;;3.90;;
33022;SDS011;19390;51.460;5.710;2023-11-19T09:04:39;28.05;;;3.95;;
33022;SDS011;19390;51.460;5.710;2023-11-19T09:07:05;26.88;;;4.45;;
33022;SDS011;19390;51.460;5.710;2023-11-19T09:09:32;32.83;;;4.47;;
33022;SDS011;19390;51.460;5.710;2023-11-19T09:12:00;30.90;;;4.28;;
33022;SDS011;19390;51.460;5.710;2023-11-19T09:14:26;25.17;;;4.05;;
33022;SDS011;19390;51.460;5.710;2023-11-19T09:16:52;37.65;;;5.43;;
33022;SDS011;19390;51.460;5.710;2023-11-19T09:19:18;25.33;;;5.15;;
33022;SDS011;19390;51.460;5.710;2023-11-19T09:21:43;24.58;;;3.78;;
33022;SDS011;19390;51.460;5.710;2023-11-19T09:24:09;30.35;;;3.88;;
33022;SDS011;19390;51.460;5.710;2023-11-19T09:26:34;25.08;;;4.55;;
33022;SDS011;19390;51.460;5.710;2023-11-19T09:29:01;29.50;;;4.38;;
33022;SDS011;19390;51.460;5.710;2023-11-19T09:31:27;28.05;;;5.30;;
33022;SDS011;19390;51.460;5.710;2023-11-19T09:33:52;30.13;;;5.38;;
33022;SDS011;19390;51.460;5.710;2023-11-19T09:36:18;33.63;;;5.07;;
33022;SDS011;19390;51.460;5.710;2023-11-19T09:38:44;29.23;;;5.18;;
33022;SDS011;19390;51.460;5.710;2023-11-19T09:41:10;28.35;;;4.80;;
33022;SDS011;19390;51.460;5.710;2023-11-19T09:43:41;18.83;;;3.35;;
33022;SDS011;19390;51.460;5.710;2023-11-19T09:46:09;23.20;;;4.18;;
33022;SDS011;19390;51.460;5.710;2023-11-19T09:48:38;30.92;;;4.50;;
33022;SDS011;19390;51.460;5.710;2023-11-19T09:51:08;23.52;;;3.15;;
33022;SDS011;19390;51.460;5.710;2023-11-19T09:53:34;33.63;;;4.28;;
33022;SDS011;19390;51.460;5.710;2023-11-19T09:56:04;20.17;;;3.72;;
33022;SDS011;19390;51.460;5.710;2023-11-19T09:58:33;25.05;;;4.65;;
33022;SDS011;19390;51.460;5.710;2023-11-19T10:00:59;30.30;;;3.95;;
33022;SDS011;19390;51.460;5.710;2023-11-19T10:03:32;22.02;;;3.78;;
33022;SDS011;19390;51.460;5.710;2023-11-19T10:06:08;50.08;;;5.03;;
33022;SDS011;19390;51.460;5.710;2023-11-19T10:08:38;27.05;;;4.20;;
33022;SDS011;19390;51.460;5.710;2023-11-19T10:11:06;27.60;;;3.95;;
33022;SDS011;19390;51.460;5.710;2023-11-19T10:13:35;31.40;;;3.80;;
33022;SDS011;19390;51.460;5.710;2023-11-19T10:16:08;26.25;;;4.07;;
33022;SDS011;19390;51.460;5.710;2023-11-19T10:18:36;30.30;;;4.53;;
33022;SDS011;19390;51.460;5.710;2023-11-19T10:21:04;23.30;;;4.25;;
33022;SDS011;19390;51.460;5.710;2023-11-19T10:23:30;31.35;;;4.88;;
33022;SDS011;19390;51.460;5.710;2023-11-19T10:26:02;22.13;;;3.47;;
33022;SDS011;19390;51.460;5.710;2023-11-19T10:28:38;24.80;;;4.07;;
33022;SDS011;19390;51.460;5.710;2023-11-19T10:31:05;24.05;;;4.13;;
33022;SDS011;19390;51.460;5.710;2023-11-19T10:33:32;22.85;;;4.35;;
33022;SDS011;19390;51.460;5.710;2023-11-19T10:35:57;27.05;;;3.95;;
33022;SDS011;19390;51.460;5.710;2023-11-19T10:38:24;23.02;;;3.95;;
33022;SDS011;19390;51.460;5.710;2023-11-19T10:40:50;17.92;;;3.80;;
33022;SDS011;19390;51.460;5.710;2023-11-19T10:43:17;24.55;;;4.28;;
33022;SDS011;19390;51.460;5.710;2023-11-19T10:45:44;17.25;;;3.53;;
33022;SDS011;19390;51.460;5.710;2023-11-19T10:48:09;27.15;;;3.40;;
33022;SDS011;19390;51.460;5.710;2023-11-19T10:50:38;26.85;;;3.67;;
33022;SDS011;19390;51.460;5.710;2023-11-19T10:53:08;19.00;;;3.55;;
33022;SDS011;19390;51.460;5.710;2023-11-19T10:55:36;20.63;;;3.92;;
33022;SDS011;19390;51.460;5.710;2023-11-19T10:58:06;15.60;;;3.28;;
33022;SDS011;19390;51.460;5.710;2023-11-19T11:00:44;22.92;;;4.47;;
33022;SDS011;19390;51.460;5.710;2023-11-19T11:03:19;17.58;;;4.38;;
33022;SDS011;19390;51.460;5.710;2023-11-19T11:05:47;21.05;;;3.13;;
33022;SDS011;19390;51.460;5.710;2023-11-19T11:08:14;23.25;;;3.92;;
33022;SDS011;19390;51.460;5.710;2023-11-19T11:10:53;20.88;;;3.35;;
33022;SDS011;19390;51.460;5.710;2023-11-19T11:13:20;29.25;;;3.97;;
33022;SDS011;19390;51.460;5.710;2023-11-19T11:15:48;15.68;;;3.65;;
33022;SDS011;19390;51.460;5.710;2023-11-19T11:18:14;19.05;;;3.08;;
33022;SDS011;19390;51.460;5.710;2023-11-19T11:20:40;19.33;;;3.35;;
33022;SDS011;19390;51.460;5.710;2023-11-19T11:28:41;25.90;;;2.53;;
33022;SDS011;19390;51.460;5.710;2023-11-19T11:36:53;19.23;;;3.25;;
33022;SDS011;19390;51.460;5.710;2023-11-19T11:39:42;19.58;;;3.30;;
33022;SDS011;19390;51.460;5.710;2023-11-19T11:45:01;17.98;;;3.13;;
33022;SDS011;19390;51.460;5.710;2023-11-19T11:50:17;20.10;;;2.75;;
33022;SDS011;19390;51.460;5.710;2023-11-19T11:57:59;17.83;;;3.00;;
33022;SDS011;19390;51.460;5.710;2023-11-19T12:00:38;18.75;;;3.67;;
33022;SDS011;19390;51.460;5.710;2023-11-19T12:03:05;17.17;;;2.60;;
33022;SDS011;19390;51.460;5.710;2023-11-19T12:05:32;15.95;;;3.92;;
33022;SDS011;19390;51.460;5.710;2023-11-19T12:08:05;22.13;;;3.20;;
33022;SDS011;19390;51.460;5.710;2023-11-19T12:13:05;26.90;;;3.47;;
33022;SDS011;19390;51.460;5.710;2023-11-19T12:16:07;20.48;;;2.80;;
33022;SDS011;19390;51.460;5.710;2023-11-19T12:18:23;20.73;;;3.30;;
33022;SDS011;19390;51.460;5.710;2023-11-19T12:20:52;19.33;;;3.20;;
33022;SDS011;19390;51.460;5.710;2023-11-19T12:23:18;23.20;;;3.05;;
33022;SDS011;19390;51.460;5.710;2023-11-19T12:25:43;17.00;;;3.08;;
33022;SDS011;19390;51.460;5.710;2023-11-19T12:28:16;22.60;;;3.03;;
33022;SDS011;19390;51.460;5.710;2023-11-19T12:30:42;17.55;;;3.58;;
33022;SDS011;19390;51.460;5.710;2023-11-19T12:33:13;20.92;;;3.67;;
33022;SDS011;19390;51.460;5.710;2023-11-19T12:35:40;19.40;;;3.67;;
33022;SDS011;19390;51.460;5.710;2023-11-19T12:38:22;21.92;;;3.88;;
33022;SDS011;19390;51.460;5.710;2023-11-19T12:41:08;18.30;;;3.25;;
33022;SDS011;19390;51.460;5.710;2023-11-19T12:43:38;16.67;;;3.40;;
33022;SDS011;19390;51.460;5.710;2023-11-19T12:46:17;17.25;;;2.75;;
33022;SDS011;19390;51.460;5.710;2023-11-19T12:48:47;21.75;;;3.20;;
33022;SDS011;19390;51.460;5.710;2023-11-19T12:51:13;22.05;;;3.05;;
33022;SDS011;19390;51.460;5.710;2023-11-19T12:53:52;16.90;;;2.63;;
33022;SDS011;19390;51.460;5.710;2023-11-19T12:56:19;17.77;;;3.65;;
33022;SDS011;19390;51.460;5.710;2023-11-19T12:58:46;25.55;;;3.38;;
33022;SDS011;19390;51.460;5.710;2023-11-19T13:01:15;16.08;;;3.00;;
33022;SDS011;19390;51.460;5.710;2023-11-19T13:03:43;28.95;;;3.60;;
33022;SDS011;19390;51.460;5.710;2023-11-19T13:06:09;12.45;;;2.70;;
33022;SDS011;19390;51.460;5.710;2023-11-19T13:08:40;16.25;;;2.75;;
33022;SDS011;19390;51.460;5.710;2023-11-19T13:11:06;21.45;;;3.53;;
33022;SDS011;19390;51.460;5.710;2023-11-19T13:13:33;23.20;;;4.07;;
33022;SDS011;19390;51.460;5.710;2023-11-19T13:16:18;25.80;;;3.38;;
33022;SDS011;19390;51.460;5.710;2023-11-19T13:18:44;14.23;;;3.08;;
33022;SDS011;19390;51.460;5.710;2023-11-19T13:21:09;27.90;;;4.55;;
33022;SDS011;19390;51.460;5.710;2023-11-19T13:23:35;28.75;;;3.92;;
33022;SDS011;19390;51.460;5.710;2023-11-19T13:26:01;25.80;;;3.72;;
33022;SDS011;19390;51.460;5.710;2023-11-19T13:28:26;16.55;;;3.10;;
33022;SDS011;19390;51.460;5.710;2023-11-19T13:30:52;29.55;;;4.10;;
33022;SDS011;19390;51.460;5.710;2023-11-19T13:33:19;33.90;;;3.85;;
33022;SDS011;19390;51.460;5.710;2023-11-19T13:35:45;32.47;;;4.93;;
33022;SDS011;19390;51.460;5.710;2023-11-19T13:38:10;19.45;;;3.83;;
33022;SDS011;19390;51.460;5.710;2023-11-19T13:40:36;13.18;;;3.35;;
33022;SDS011;19390;51.460;5.710;2023-11-19T13:43:01;17.48;;;2.95;;
33022;SDS011;19390;51.460;5.710;2023-11-19T13:45:27;15.68;;;3.60;;
33022;SDS011;19390;51.460;5.710;2023-11-19T13:47:53;18.60;;;3.22;;
33022;SDS011;19390;51.460;5.710;2023-11-19T13:50:18;21.17;;;2.90;;
33022;SDS011;19390;51.460;5.710;2023-11-19T13:52:45;16.88;;;3.00;;
33022;SDS011;19390;51.460;5.710;2023-11-19T13:55:12;15.75;;;2.65;;
33022;SDS011;19390;51.460;5.710;2023-11-19T13:57:38;15.80;;;3.35;;
33022;SDS011;19390;51.460;5.710;2023-11-19T14:00:06;16.23;;;2.60;;
33022;SDS011;19390;51.460;5.710;2023-11-19T14:02:41;16.50;;;2.90;;
33022;SDS011;19390;51.460;5.710;2023-11-19T14:05:08;21.80;;;3.22;;
33022;SDS011;19390;51.460;5.710;2023-11-19T14:07:34;12.48;;;2.63;;
33022;SDS011;19390;51.460;5.710;2023-11-19T14:09:59;18.52;;;3.28;;
33022;SDS011;19390;51.460;5.710;2023-11-19T14:12:26;18.67;;;2.53;;
33022;SDS011;19390;51.460;5.710;2023-11-19T14:14:51;16.58;;;3.67;;
33022;SDS011;19390;51.460;5.710;2023-11-19T14:17:17;17.02;;;2.97;;
33022;SDS011;19390;51.460;5.710;2023-11-19T14:19:43;21.27;;;3.35;;
33022;SDS011;19390;51.460;5.710;2023-11-19T14:22:09;15.18;;;3.22;;
33022;SDS011;19390;51.460;5.710;2023-11-19T14:24:35;22.88;;;2.72;;
33022;SDS011;19390;51.460;5.710;2023-11-19T14:27:01;15.63;;;3.30;;
33022;SDS011;19390;51.460;5.710;2023-11-19T14:29:27;10.40;;;2.50;;
33022;SDS011;19390;51.460;5.710;2023-11-19T14:31:55;24.33;;;3.30;;
33022;SDS011;19390;51.460;5.710;2023-11-19T14:34:22;21.45;;;3.83;;
33022;SDS011;19390;51.460;5.710;2023-11-19T14:36:47;15.65;;;2.63;;
33022;SDS011;19390;51.460;5.710;2023-11-19T14:39:14;20.00;;;2.63;;
33022;SDS011;19390;51.460;5.710;2023-11-19T14:41:40;11.40;;;2.50;;
33022;SDS011;19390;51.460;5.710;2023-11-19T14:44:05;16.33;;;2.90;;
33022;SDS011;19390;51.460;5.710;2023-11-19T14:46:31;13.13;;;2.88;;
33022;SDS011;19390;51.460;5.710;2023-11-19T14:48:56;16.00;;;2.80;;
33022;SDS011;19390;51.460;5.710;2023-11-19T14:51:22;17.00;;;3.85;;
33022;SDS011;19390;51.460;5.710;2023-11-19T14:53:48;20.23;;;2.97;;
33022;SDS011;19390;51.460;5.710;2023-11-19T14:56:13;17.63;;;3.00;;
33022;SDS011;19390;51.460;5.710;2023-11-19T14:58:39;23.95;;;4.15;;
33022;SDS011;19390;51.460;5.710;2023-11-19T15:01:05;23.58;;;3.17;;